• Join FlightAware (Why Join?)
  • Login
  • US Flag 
05:29AM EDT


 

Airport Tracker/Info


-or-


 

Live Flight TrackerFlight Track Log ✈ N325WP ✈ 09-Jun-2013 ✈ KSLN - KMTV

Flight Track Log - Related Links

Times and Time Zones

All times are in EDT time to prevent confusion due to time zone crossing. See the N325WP flight status page for this flight to view local times or setup timezone preferences in your user account.

Time Position Orientation Groundspeed Altitude Reporting Facility
EDT Latitude Longitude Course Direction KTS MPH feet Rate Location/Type
03:53PM 38.8186 -97.6353 25° Northeast 172 198 2,500  Level Kansas City Center
03:54PM 38.8217 -97.5522 87° East 238 274 4,800 2,100 Climbing Kansas City Center
03:55PM 38.8028 -97.4578 104° East 261 300 6,900 1,800 Climbing Kansas City Center
03:56PM 38.7806 -97.3567 106° East 301 346 8,600 1,740 Climbing Kansas City Center
03:57PM 38.7583 -97.2339 103° East 337 388 10,500 1,920 Climbing Kansas City Center
03:58PM 38.7539 -97.1086 93° East 339 390 12,600 1,980 Climbing Kansas City Center
03:59PM 38.7450 -96.9833 95° East 340 391 14,600 1,920 Climbing Kansas City Center
04:00PM 38.7406 -96.8633 93° East 338 389 16,600 1,620 Climbing Kansas City Center
04:01PM 38.7333 -96.7436 94° East 336 387 18,000 1,380 Climbing Kansas City Center
04:02PM 38.7269 -96.6186 94° East 346 398 19,500 1,500 Climbing Kansas City Center
04:03PM 38.7194 -96.4850 94° East 352 405 21,100 1,440 Climbing Kansas City Center
04:04PM 38.7133 -96.3664 94° East 349 402 22,500 1,440 Climbing Kansas City Center
04:06PM 38.7039 -96.2272 95° East 351 404 24,100 1,320 Climbing Kansas City Center
04:07PM 38.6975 -96.1061 94° East 355 409 25,300 1,260 Climbing Kansas City Center
04:08PM 38.6886 -95.9625 94° East 361 415 26,700 1,200 Climbing Kansas City Center
04:09PM 38.6814 -95.8406 94° East 361 415 27,900 1,200 Climbing Kansas City Center
04:10PM 38.6731 -95.6994 94° East 357 411 29,200 1,080 Climbing Kansas City Center
04:11PM 38.6647 -95.5764 95° East 363 418 30,200 960 Climbing Kansas City Center
04:12PM 38.6569 -95.4331 94° East 365 420 31,300 1,020 Climbing Kansas City Center
04:13PM 38.6486 -95.3078 95° East 370 426 32,300 960 Climbing Kansas City Center
04:14PM 38.6394 -95.1644 95° East 364 419 33,400 960 Climbing Kansas City Center
04:15PM 38.6314 -95.0411 95° East 365 420 34,400 1,020 Climbing Kansas City Center
04:16PM 38.6222 -94.9003 95° East 359 413 35,500 960 Climbing Kansas City Center
04:17PM 38.6133 -94.7828 95° East 352 405 36,500 960 Climbing Kansas City Center
04:18PM 38.6053 -94.6497 94° East 339 390 37,600 720 Climbing Kansas City Center
04:19PM 38.5964 -94.5375 96° East 335 386 38,100 480 Climbing Kansas City Center
04:20PM 38.5869 -94.4039 95° East 338 389 38,700 540 Climbing Kansas City Center
04:21PM 38.5786 -94.2875 95° East 342 394 39,300 540 Climbing Kansas City Center
04:22PM 38.5686 -94.1522 95° East 343 395 39,900 480 Climbing Kansas City Center
04:23PM 38.5603 -94.0350 95° East 345 397 40,400 480 Climbing Kansas City Center
04:24PM 38.5492 -93.8997 96° East 344 396 40,900 240 Climbing Kansas City Center
04:25PM 38.5403 -93.7811 95° East 346 398 41,000  Climbing Kansas City Center
04:26PM 38.5281 -93.6544 97° East 359 413 41,000  Level Kansas City Center
04:27PM 38.5178 -93.5197 96° East 376 433 41,000  Level Kansas City Center
04:28PM 38.5053 -93.3553 95° East 385 443 41,000  Level Kansas City Center
04:29PM 38.4956 -93.2167 95° East 389 448 41,000  Level Kansas City Center
04:30PM 38.4831 -93.0800 97° East 388 447 41,000  Level Kansas City Center
04:31PM 38.4717 -92.9450 96° East 384 442 41,000  Level Kansas City Center
04:32PM 38.4608 -92.8064 96° East 387 445 41,000  Level Kansas City Center
04:33PM 38.4494 -92.6664 96° East 393 452 41,000  Level Kansas City Center
04:34PM 38.4364 -92.5283 97° East 390 449 41,000  Level Kansas City Center
04:35PM 38.4253 -92.3892 96° East 391 450 41,000  Level Kansas City Center
04:37PM 38.4097 -92.2231 97° East 389 448 41,000  Level Kansas City Center
04:38PM 38.3969 -92.0828 97° East 393 452 41,000  Level Kansas City Center
04:39PM 38.3833 -91.9425 97° East 394 453 41,000  Level Kansas City Center
04:40PM 38.3700 -91.8028 97° East 395 455 41,000  Level Kansas City Center
04:41PM 38.3564 -91.6622 97° East 396 456 41,000  Level Kansas City Center
04:42PM 38.3431 -91.5222 97° East 396 456 41,000  Level Kansas City Center
04:43PM 38.3292 -91.3811 97° East 396 456 41,000  Level Kansas City Center
04:44PM 38.3142 -91.2408 98° East 398 458 41,000  Level Kansas City Center
04:45PM 38.2997 -91.1022 98° East 399 459 41,000  Level Kansas City Center
04:46PM 38.2833 -90.9358 97° East 398 458 41,000  Level Kansas City Center
04:47PM 38.2692 -90.7975 97° East 398 458 41,000  Level Kansas City Center
04:48PM 38.2533 -90.6567 98° East 403 464 41,000  Level Kansas City Center
04:49PM 38.2386 -90.5161 98° East 406 467 41,000  Level Kansas City Center
04:50PM 38.2236 -90.3744 98° East 408 470 41,000  Level Kansas City Center
04:51PM 38.2053 -90.2053 98° East 407 468 41,000  Level Kansas City Center
04:52PM 38.1892 -90.0650 98° East 406 467 41,000  Level Kansas City Center
04:53PM 38.1764 -89.9203 96° East 412 474 41,000  Level Kansas City Center
04:54PM 38.1600 -89.7767 98° East 414 476 41,000  Level Kansas City Center
04:55PM 38.1403 -89.6136 99° East 412 474 41,000  Level Kansas City Center
04:56PM 38.1228 -89.4583 98° East 414 476 41,000  Level Kansas City Center
04:57PM 38.1058 -89.3142 98° East 415 478 41,000  Level Kansas City Center
04:58PM 38.0872 -89.1594 99° East 415 478 41,000  Level Kansas City Center
04:59PM 38.0714 -89.0272 99° East 417 480 41,000  Level Kansas City Center
05:00PM 38.0544 -88.8817 98° East 419 482 41,000  Level Kansas City Center
05:01PM 38.0342 -88.7400 100° East 415 478 41,000  Level Kansas City Center
05:02PM 38.0158 -88.5636 97° East 411 473 41,000  Level Kansas City Center
05:03PM 37.9981 -88.4203 99° East 409 471 41,000  Level Kansas City Center
05:04PM 37.9797 -88.2758 99° East 413 475 41,000  Level Kansas City Center
05:05PM 37.9625 -88.1333 99° East 410 472 41,000  Level Kansas City Center
05:06PM 37.9444 -87.9903 99° East 408 470 41,000  Level Indianapolis Center
05:07PM 37.9253 -87.8500 100° East 407 468 41,000  Level Indianapolis Center
05:08PM 37.9064 -87.7081 100° East 409 471 41,000  Level Indianapolis Center
05:09PM 37.8892 -87.5675 99° East 407 468 41,000  Level Indianapolis Center
05:11PM 37.8694 -87.4269 100° East 405 466 41,000  Level Indianapolis Center
05:12PM 37.8472 -87.2586 99° East 406 467 41,000  Level Indianapolis Center
05:13PM 37.8283 -87.1186 100° East 406 467 41,000  Level Indianapolis Center
05:14PM 37.8089 -86.9794 100° East 404 465 41,000  Level Indianapolis Center
05:15PM 37.7897 -86.8403 100° East 403 464 41,000  Level Indianapolis Center
05:16PM 37.7711 -86.7017 100° East 401 461 41,000  Level Indianapolis Center
05:17PM 37.7508 -86.5625 100° East 403 464 41,000  Level Indianapolis Center
05:18PM 37.7292 -86.4072 100° East 405 466 41,000  Level Indianapolis Center
05:19PM 37.7089 -86.2661 100° East 403 464 41,000  Level Indianapolis Center
05:20PM 37.6872 -86.1172 100° East 400 460 41,000  Level Indianapolis Center
05:21PM 37.6653 -85.9781 101° East 402 463 41,000  Level Indianapolis Center
05:22PM 37.6467 -85.8394 100° East 399 459 41,000  Level Indianapolis Center
05:23PM 37.6258 -85.7019 101° East 399 459 41,000  Level Indianapolis Center
05:24PM 37.6058 -85.5650 100° East 396 456 41,000  Level Indianapolis Center
05:25PM 37.5822 -85.4147 101° East 397 457 41,000  Level Indianapolis Center
05:26PM 37.5619 -85.2769 100° East 399 459 41,000  Level Indianapolis Center
05:27PM 37.5406 -85.1394 101° East 399 459 41,000  Level Indianapolis Center
05:28PM 37.5194 -85.0017 101° East 400 460 41,000  Level Indianapolis Center
05:29PM 37.4950 -84.8389 101° East 404 465 41,000  Level Indianapolis Center
05:30PM 37.4728 -84.7000 101° East 404 465 41,000  Level Indianapolis Center
05:31PM 37.4506 -84.5619 101° East 402 463 41,000  Level Indianapolis Center
05:32PM 37.4267 -84.4236 102° East 404 465 41,000  Level Indianapolis Center
05:33PM 37.4047 -84.2836 101° East 406 467 41,000  Level Indianapolis Center
05:34PM 37.3839 -84.1433 101° East 407 468 41,000  Level Indianapolis Center
05:35PM 37.3561 -83.9817 102° East 406 467 41,000  Level Indianapolis Center
05:36PM 37.3328 -83.8425 102° East 406 467 41,000  Level Indianapolis Center
05:37PM 37.3108 -83.7036 101° East 407 468 41,000  Level Indianapolis Center
05:38PM 37.2869 -83.5644 102° East 407 468 41,000  Level Indianapolis Center
05:39PM 37.2650 -83.4264 101° East 404 465 41,000  Level Indianapolis Center
05:40PM 37.2397 -83.2864 103° East 408 470 41,000  Level Indianapolis Center
05:41PM 37.2119 -83.1244 102° East 406 467 41,000  Level Indianapolis Center
05:42PM 37.1881 -82.9853 102° East 406 467 41,000 -540 Level Indianapolis Center
05:43PM 37.1642 -82.8436 102° East 410 472 40,000 -1,080 Descending Indianapolis Center
05:45PM 37.1386 -82.7008 103° East 414 476 38,800 -1,260 Descending Indianapolis Center
05:46PM 37.1133 -82.5614 103° East 408 470 37,500 -1,380 Descending Indianapolis Center
05:47PM 37.0889 -82.4236 102° East 405 466 36,000 -1,500 Descending Indianapolis Center
05:48PM 37.0636 -82.2844 103° East 408 470 34,500 -1,500 Descending Indianapolis Center
05:49PM 37.0386 -82.1447 103° East 409 471 33,000 -1,800 Descending Indianapolis Center
05:50PM 37.0078 -81.9794 103° East 416 479 30,900 -1,920 Descending Indianapolis Center
05:51PM 36.9814 -81.8386 103° East 417 480 29,100 -1,800 Descending Indianapolis Center
05:52PM 36.9561 -81.6986 103° East 413 475 27,200 -1,860 Descending Indianapolis Center
05:53PM 36.9297 -81.5600 103° East 409 471 25,300 -1,620 Descending Indianapolis Center
05:54PM 36.9053 -81.4286 103° East 401 461 24,000 -1,020 Descending Indianapolis Center
05:55PM 36.8822 -81.3097 104° East 371 427 23,300 -1,320 Descending Indianapolis Center
05:56PM 36.8753 -81.1611 93° East 366 421 21,400 -1,800 Descending Atlanta Center
05:57PM 36.8889 -81.0333 82° East 367 422 19,700 -1,740 Descending Atlanta Center
05:58PM 36.8989 -80.9242 83° East 360 414 18,000 -1,560 Descending Atlanta Center
05:59PM 36.9044 -80.8175 86° East 334 384 16,600 -1,620 Descending Atlanta Center
06:00PM 36.8811 -80.7222 107° East 286 329 14,800 -1,800 Descending Atlanta Center
06:01PM 36.8472 -80.6331 115° Southeast 279 321 13,100 -1,860 Descending Atlanta Center
06:02PM 36.8133 -80.5358 114° Southeast 284 327 11,100 -1,860 Descending Atlanta Center
06:03PM 36.7836 -80.4492 113° Southeast 279 321 9,400 -1,740 Descending Atlanta Center
06:04PM 36.7519 -80.3675 116° Southeast 268 308 7,700 -1,740 Descending Atlanta Center
06:05PM 36.7267 -80.2911 112° Southeast 268 308 6,000 -1,200 Descending Atlanta Center
06:06PM 36.7017 -80.2222 114° Southeast 244 281 5,300 -600 Descending Atlanta Center
06:07PM 36.6700 -80.1436 117° Southeast 231 266 4,900 1,800 Descending Atlanta Center
06:08PM 36.6428 -80.0725 115° Southeast 231 266 9,000 2,040 Climbing Atlanta Center
06:09PM 36.6133 -80.0042 118° Southeast 231 266 9,000  Level Atlanta Center
06:10PM 36.6022 -79.9764 116° Southeast 231 266 9,000  Level Atlanta Center
06:12PM 36.6167 -80.0167 293° West  Level FlightAware Approximate
06:19PM 36.6307 -80.0183 293° West  Level Estimated